createdAt,value
2019-05-21T00:01:46.751Z,24.25
2019-05-21T00:04:27.340Z,32.55
2019-05-21T00:06:45.431Z,30.72
2019-05-21T00:09:13.897Z,32.90
2019-05-21T00:11:42.352Z,23.38
2019-05-21T00:14:10.838Z,26.20
2019-05-21T00:16:39.344Z,24.35
2019-05-21T00:19:07.803Z,23.92
2019-05-21T00:21:36.261Z,27.70
2019-05-21T00:24:04.739Z,27.55
2019-05-21T00:26:33.263Z,29.42
2019-05-21T00:29:38.103Z,33.88
2019-05-21T00:32:42.653Z,33.18
2019-05-21T00:35:48.891Z,37.50
2019-05-21T00:38:53.703Z,38.42
2019-05-21T00:41:58.625Z,37.93
2019-05-21T00:44:27.208Z,39.75
2019-05-21T00:46:55.664Z,43.02
2019-05-21T00:49:24.135Z,38.95
2019-05-21T00:52:06.503Z,46.63
2019-05-21T00:54:22.788Z,42.25
2019-05-21T00:56:51.305Z,46.55
2019-05-21T00:59:19.812Z,46.25
2019-05-21T01:01:48.363Z,35.75
2019-05-21T01:04:16.896Z,37.28
2019-05-21T01:06:45.336Z,45.63
2019-05-21T01:09:13.806Z,44.83
2019-05-21T01:11:42.263Z,41.60
2019-05-21T01:14:10.813Z,36.63
2019-05-21T01:16:39.312Z,32.65
2019-05-21T01:19:07.808Z,24.92
2019-05-21T01:21:36.262Z,23.77
2019-05-21T01:24:05.543Z,19.45
2019-05-21T01:26:34.003Z,15.90
2019-05-21T01:29:02.472Z,13.68
2019-05-21T01:31:30.988Z,10.13
2019-05-21T01:33:59.438Z,10.23
2019-05-21T01:36:27.903Z,7.95
2019-05-21T01:38:56.347Z,7.42
2019-05-21T01:41:24.800Z,9.83
2019-05-21T01:43:53.258Z,6.53
2019-05-21T01:46:21.703Z,7.12
2019-05-21T01:48:50.168Z,8.68
2019-05-21T01:51:18.617Z,8.00
2019-05-21T01:53:47.069Z,6.72
2019-05-21T01:56:15.528Z,6.45
2019-05-21T01:58:43.993Z,7.78
2019-05-21T02:01:12.448Z,6.40
2019-05-21T02:03:40.960Z,4.22
2019-05-21T02:06:09.411Z,3.87
2019-05-21T02:08:37.864Z,5.55
2019-05-21T02:11:06.384Z,4.42
2019-05-21T02:13:34.840Z,3.08
2019-05-21T02:16:03.286Z,3.58
2019-05-21T02:18:31.755Z,4.28
2019-05-21T02:21:00.232Z,3.95
2019-05-21T02:23:28.676Z,3.27
2019-05-21T02:25:57.134Z,4.03
2019-05-21T02:28:25.597Z,4.72
2019-05-21T02:30:56.683Z,3.87
2019-05-21T02:33:24.278Z,3.95
2019-05-21T02:35:54.645Z,2.75
2019-05-21T02:38:23.002Z,3.30
2019-05-21T02:40:51.447Z,5.47
2019-05-21T02:43:19.908Z,5.08
2019-05-21T02:45:48.413Z,6.40
2019-05-21T02:48:16.941Z,3.35
2019-05-21T02:50:45.476Z,4.22
2019-05-21T02:53:13.924Z,4.80
2019-05-21T02:55:42.456Z,6.85
2019-05-21T02:58:10.895Z,10.85
2019-05-21T03:00:40.984Z,7.80
2019-05-21T03:03:11.086Z,7.00
2019-05-21T03:05:39.564Z,6.95
2019-05-21T03:08:08.006Z,6.65
2019-05-21T03:10:36.462Z,5.53
2019-05-21T03:13:05.259Z,8.08
2019-05-21T03:15:33.777Z,5.62
2019-05-21T03:18:02.305Z,6.42
2019-05-21T03:20:30.861Z,6.33
2019-05-21T03:22:59.317Z,6.47
2019-05-21T03:25:27.844Z,5.40
2019-05-21T03:27:56.333Z,7.60
2019-05-21T03:30:24.877Z,5.20
2019-05-21T03:32:53.767Z,6.60
2019-05-21T03:35:22.294Z,5.47
2019-05-21T03:37:50.746Z,5.95
2019-05-21T03:40:19.346Z,5.58
2019-05-21T03:42:47.832Z,5.70
2019-05-21T03:45:19.450Z,4.20
2019-05-21T03:47:47.952Z,4.20
2019-05-21T03:50:16.520Z,4.97
2019-05-21T03:52:44.972Z,5.30
2019-05-21T03:55:13.555Z,5.95
2019-05-21T03:57:42.087Z,5.37
2019-05-21T04:00:11.514Z,4.20
2019-05-21T04:02:39.967Z,6.08
2019-05-21T04:05:08.858Z,3.90
2019-05-21T04:07:37.349Z,6.08
2019-05-21T04:10:16.461Z,4.03
2019-05-21T04:12:46.565Z,5.37
2019-05-21T04:15:22.697Z,5.47
2019-05-21T04:17:52.862Z,4.83
2019-05-21T04:20:21.303Z,5.10
2019-05-21T04:22:52.733Z,4.58
2019-05-21T04:25:22.319Z,8.40
2019-05-21T04:27:50.769Z,7.58
2019-05-21T04:30:19.211Z,7.55
2019-05-21T04:32:47.740Z,3.95
2019-05-21T04:35:16.206Z,4.17
2019-05-21T04:37:44.712Z,5.60
2019-05-21T04:40:13.442Z,4.72
2019-05-21T04:42:41.955Z,4.42
2019-05-21T04:45:10.606Z,4.60
2019-05-21T04:47:39.137Z,4.53
2019-05-21T04:50:07.648Z,4.03
2019-05-21T04:52:36.097Z,5.95
2019-05-21T04:55:06.585Z,8.13
2019-05-21T04:57:37.295Z,4.22
2019-05-21T05:00:07.057Z,6.67
2019-05-21T05:02:35.519Z,4.72
2019-05-21T05:05:06.000Z,6.12
2019-05-21T05:07:34.478Z,3.67
2019-05-21T05:10:02.923Z,6.33
2019-05-21T05:12:31.376Z,5.95
2019-05-21T05:14:59.841Z,5.47
2019-05-21T05:17:28.341Z,5.45
2019-05-21T05:19:56.829Z,6.12
2019-05-21T05:22:25.352Z,5.65
2019-05-21T05:24:53.813Z,5.10
2019-05-21T05:27:22.319Z,4.25
2019-05-21T05:29:50.789Z,5.37
2019-05-21T05:32:19.253Z,4.90
2019-05-21T05:34:47.692Z,3.50
2019-05-21T05:37:16.161Z,4.53
2019-05-21T05:39:44.612Z,4.62
2019-05-21T05:42:13.065Z,4.53
2019-05-21T05:44:41.588Z,3.75
2019-05-21T05:47:11.772Z,3.85
2019-05-21T05:49:44.598Z,6.55
2019-05-21T05:52:13.100Z,5.37
2019-05-21T05:54:41.606Z,6.35
2019-05-21T05:57:10.355Z,4.75
2019-05-21T05:59:39.074Z,6.10
2019-05-21T06:02:07.595Z,5.72
2019-05-21T06:04:36.045Z,4.35
2019-05-21T06:07:04.518Z,3.75
2019-05-21T06:09:33.069Z,3.98
2019-05-21T06:12:01.559Z,4.53
2019-05-21T06:14:30.777Z,4.85
2019-05-21T06:16:59.280Z,3.00
2019-05-21T06:19:27.713Z,4.40
2019-05-21T06:21:56.195Z,3.60
2019-05-21T06:24:24.677Z,2.95
2019-05-21T06:26:53.138Z,2.27
2019-05-21T06:29:21.719Z,1.90
2019-05-21T06:31:52.333Z,2.20
2019-05-21T06:34:20.815Z,1.35
2019-05-21T06:36:49.269Z,1.50
2019-05-21T06:39:17.714Z,1.27
2019-05-21T06:41:46.199Z,1.60
2019-05-21T06:44:14.655Z,1.55
2019-05-21T06:46:43.401Z,1.50
2019-05-21T06:49:11.863Z,2.75
2019-05-21T06:51:41.914Z,1.10
2019-05-21T06:54:10.555Z,0.93
2019-05-21T06:56:39.060Z,2.92
2019-05-21T06:59:13.675Z,1.20
2019-05-21T07:01:42.126Z,1.52
2019-05-21T07:04:10.578Z,2.33
2019-05-21T07:06:39.034Z,2.15
2019-05-21T07:09:07.517Z,1.77
2019-05-21T07:11:35.965Z,1.35
2019-05-21T07:14:04.751Z,1.10
2019-05-21T07:16:33.212Z,2.95
2019-05-21T07:19:01.659Z,0.72
2019-05-21T07:21:30.117Z,1.47
2019-05-21T07:23:58.835Z,0.78
2019-05-21T07:26:27.291Z,1.25
2019-05-21T07:28:56.529Z,2.42
2019-05-21T07:31:25.520Z,1.20
2019-05-21T07:33:55.795Z,2.42
2019-05-21T07:36:24.241Z,0.70
2019-05-21T07:38:54.231Z,1.70
2019-05-21T07:41:22.952Z,1.45
2019-05-21T07:43:51.487Z,1.42
2019-05-21T07:46:19.933Z,1.05
2019-05-21T07:48:48.383Z,1.12
2019-05-21T07:51:16.861Z,3.12
2019-05-21T07:53:45.309Z,0.82
2019-05-21T07:56:13.833Z,1.10
2019-05-21T07:58:42.291Z,1.00
2019-05-21T08:01:10.756Z,1.95
2019-05-21T08:03:39.276Z,0.70
2019-05-21T08:06:07.736Z,2.37
2019-05-21T08:08:36.197Z,0.70
2019-05-21T08:11:04.647Z,1.07
2019-05-21T08:13:33.174Z,1.70
2019-05-21T08:16:01.629Z,0.70
2019-05-21T08:18:30.166Z,0.62
2019-05-21T08:20:58.693Z,1.10
2019-05-21T08:23:27.150Z,1.35
2019-05-21T08:25:55.604Z,1.40
2019-05-21T08:28:24.133Z,4.85
2019-05-21T08:30:52.629Z,1.17
2019-05-21T08:33:21.132Z,1.02
2019-05-21T08:35:49.589Z,0.85
2019-05-21T08:38:18.038Z,0.60
2019-05-21T08:40:46.502Z,0.57
2019-05-21T08:43:15.024Z,0.80
2019-05-21T08:45:43.483Z,2.55
2019-05-21T08:48:13.498Z,1.02
2019-05-21T08:50:42.049Z,1.15
2019-05-21T08:53:10.503Z,1.15
2019-05-21T08:55:38.961Z,0.70
2019-05-21T08:58:07.914Z,0.98
2019-05-21T09:00:36.672Z,0.60
2019-05-21T09:03:05.179Z,1.47
2019-05-21T09:05:33.631Z,1.55
2019-05-21T09:08:02.083Z,1.05
2019-05-21T09:10:30.521Z,0.93
2019-05-21T09:13:00.619Z,1.50
2019-05-21T09:15:31.779Z,0.60
2019-05-21T09:18:00.253Z,0.60
2019-05-21T09:20:28.709Z,0.60
2019-05-21T09:22:57.162Z,0.70
2019-05-21T09:25:25.641Z,1.55
2019-05-21T09:27:54.167Z,1.00
2019-05-21T09:30:22.854Z,0.90
2019-05-21T09:32:51.295Z,0.65
2019-05-21T09:35:19.811Z,1.50
2019-05-21T09:37:48.271Z,0.70
2019-05-21T09:40:18.811Z,2.58
2019-05-21T09:42:47.386Z,2.37
2019-05-21T09:45:16.559Z,2.55
2019-05-21T09:47:53.777Z,2.58
2019-05-21T09:50:22.309Z,0.82
2019-05-21T09:52:50.937Z,2.50
2019-05-21T09:55:19.688Z,2.92
2019-05-21T09:58:06.107Z,1.00
2019-05-21T10:00:52.249Z,0.60
2019-05-21T10:03:25.019Z,3.27
2019-05-21T10:05:56.377Z,2.30
2019-05-21T10:08:24.853Z,0.60
2019-05-21T10:10:53.302Z,0.50
2019-05-21T10:13:21.760Z,0.70
2019-05-21T10:15:50.280Z,0.70
2019-05-21T10:18:18.737Z,0.72
2019-05-21T10:20:47.260Z,1.07
2019-05-21T10:23:15.706Z,1.00
2019-05-21T10:25:44.155Z,1.17
2019-05-21T10:28:12.613Z,0.93
2019-05-21T10:30:41.130Z,1.22
2019-05-21T10:33:11.151Z,1.32
2019-05-21T10:35:42.292Z,1.92
2019-05-21T10:38:10.891Z,1.98
2019-05-21T10:40:39.348Z,1.65
2019-05-21T10:43:07.881Z,1.50
2019-05-21T10:45:36.401Z,0.78
2019-05-21T10:48:04.957Z,0.70
2019-05-21T10:50:33.504Z,4.75
2019-05-21T10:53:03.565Z,1.70
2019-05-21T10:55:32.001Z,0.98
2019-05-21T10:58:00.513Z,6.17
2019-05-21T11:00:29.610Z,1.00
2019-05-21T11:03:05.467Z,1.32
2019-05-21T11:05:38.224Z,1.32
2019-05-21T11:08:24.439Z,2.08
2019-05-21T11:10:37.575Z,0.72
2019-05-21T11:13:06.024Z,4.90
2019-05-21T11:15:36.604Z,24.07
2019-05-21T11:18:10.998Z,28.42
2019-05-21T11:20:35.743Z,4.62
2019-05-21T11:23:04.746Z,1.25
2019-05-21T11:25:33.278Z,1.10
2019-05-21T11:28:05.333Z,0.75
2019-05-21T11:30:32.138Z,0.60
2019-05-21T11:33:00.725Z,1.82
2019-05-21T11:35:29.328Z,1.02
2019-05-21T11:37:57.945Z,0.72
2019-05-21T11:40:28.012Z,0.80
2019-05-21T11:42:56.542Z,3.05
2019-05-21T11:45:32.143Z,1.25
2019-05-21T11:47:55.254Z,2.15
2019-05-21T11:50:23.768Z,1.00
2019-05-21T11:52:52.226Z,0.72
2019-05-21T11:55:20.679Z,1.62
2019-05-21T11:57:49.131Z,1.57
2019-05-21T12:00:21.699Z,0.82
2019-05-21T12:02:50.176Z,1.75
2019-05-21T12:05:18.777Z,0.60
2019-05-21T12:07:47.233Z,1.70
2019-05-21T12:10:15.873Z,1.95
2019-05-21T12:12:44.429Z,6.80
2019-05-21T12:15:13.386Z,2.85
2019-05-21T12:17:42.154Z,2.00
2019-05-21T12:20:11.287Z,2.08
2019-05-21T12:22:39.813Z,2.52
2019-05-21T12:25:08.804Z,6.22
2019-05-21T12:27:37.335Z,2.87
2019-05-21T12:30:09.006Z,1.10
2019-05-21T12:32:37.474Z,1.27
2019-05-21T12:35:07.131Z,3.22
2019-05-21T12:37:35.685Z,2.98
2019-05-21T12:40:06.231Z,1.42
2019-05-21T12:42:34.685Z,2.05
2019-05-21T12:45:03.218Z,0.95
2019-05-21T12:47:31.740Z,1.82
2019-05-21T12:50:00.192Z,1.80
2019-05-21T12:52:28.659Z,6.53
2019-05-21T12:54:57.175Z,5.47
2019-05-21T12:57:25.628Z,1.87
2019-05-21T12:59:54.077Z,1.77
2019-05-21T13:02:22.542Z,1.62
2019-05-21T13:04:50.987Z,17.87
2019-05-21T13:07:19.468Z,1.15
2019-05-21T13:09:47.991Z,1.87
2019-05-21T13:12:18.966Z,2.22
2019-05-21T13:14:47.436Z,4.92
2019-05-21T13:17:16.032Z,1.87
2019-05-21T13:19:44.611Z,3.15
2019-05-21T13:22:13.076Z,1.42
2019-05-21T13:24:41.612Z,1.15
2019-05-21T13:27:10.220Z,2.83
2019-05-21T13:29:38.848Z,3.42
2019-05-21T13:32:07.520Z,1.30
2019-05-21T13:34:37.515Z,0.85
2019-05-21T13:37:05.965Z,1.37
2019-05-21T13:39:48.823Z,3.08
2019-05-21T13:42:05.011Z,2.90
2019-05-21T13:44:33.524Z,1.47
2019-05-21T13:47:02.021Z,3.77
2019-05-21T13:49:33.783Z,1.42
2019-05-21T13:52:02.264Z,1.77
2019-05-21T13:54:30.720Z,1.62
2019-05-21T13:56:59.175Z,0.85
2019-05-21T13:59:27.720Z,1.57
2019-05-21T14:01:56.321Z,1.40
2019-05-21T14:04:25.021Z,1.62
2019-05-21T14:06:53.531Z,1.22
2019-05-21T14:09:21.990Z,2.08
2019-05-21T14:11:50.511Z,2.35
2019-05-21T14:14:19.237Z,2.47
2019-05-21T14:16:47.760Z,2.72
2019-05-21T14:19:16.286Z,3.05
2019-05-21T14:21:44.756Z,1.40
2019-05-21T14:24:13.278Z,1.90
2019-05-21T14:26:41.732Z,1.30
2019-05-21T14:29:10.255Z,1.65
2019-05-21T14:31:38.724Z,1.47
2019-05-21T14:34:07.239Z,1.37
2019-05-21T14:36:35.742Z,2.98
2019-05-21T14:39:08.176Z,1.77
2019-05-21T14:44:05.912Z,2.80
2019-05-21T14:46:34.374Z,2.85
2019-05-21T14:49:04.491Z,3.50
2019-05-21T14:51:33.006Z,3.30
2019-05-21T14:54:05.244Z,2.27
2019-05-21T14:56:33.696Z,1.95
2019-05-21T14:59:02.218Z,3.25
2019-05-21T15:01:30.754Z,3.55
2019-05-21T15:03:59.406Z,2.67
2019-05-21T15:06:29.673Z,2.08
2019-05-21T15:08:58.212Z,2.75
2019-05-21T15:11:26.668Z,1.95
2019-05-21T15:13:55.144Z,3.20
2019-05-21T15:16:23.620Z,2.00
2019-05-21T15:18:52.064Z,2.27
2019-05-21T15:21:28.135Z,2.27
2019-05-21T15:23:56.615Z,2.75
2019-05-21T15:26:25.181Z,5.55
2019-05-21T15:28:53.649Z,2.75
2019-05-21T15:31:22.278Z,1.50
2019-05-21T15:33:51.309Z,2.27
2019-05-21T15:36:19.760Z,1.90
2019-05-21T15:38:50.626Z,3.35
2019-05-21T15:41:18.605Z,2.40
2019-05-21T15:43:47.057Z,2.58
2019-05-21T15:46:15.501Z,1.37
2019-05-21T15:48:44.044Z,1.77
2019-05-21T15:51:12.496Z,1.67
2019-05-21T15:53:43.845Z,2.72
2019-05-21T15:56:12.330Z,1.70
2019-05-21T15:58:40.789Z,1.75
2019-05-21T16:01:09.251Z,3.87
2019-05-21T16:03:37.691Z,3.20
2019-05-21T16:06:06.178Z,2.22
2019-05-21T16:08:35.074Z,2.17
2019-05-21T16:11:03.989Z,2.72
2019-05-21T16:13:32.433Z,2.60
2019-05-21T16:16:00.883Z,1.77
2019-05-21T16:18:29.349Z,2.72
2019-05-21T16:20:57.868Z,5.10
2019-05-21T16:23:26.432Z,1.95
2019-05-21T16:25:56.431Z,1.75
2019-05-21T16:28:24.961Z,1.50
2019-05-21T16:30:53.522Z,3.27
2019-05-21T16:33:22.024Z,3.17
2019-05-21T16:35:50.539Z,1.90
2019-05-21T16:38:20.661Z,1.82
2019-05-21T16:40:49.127Z,3.22
2019-05-21T16:43:17.570Z,4.00
2019-05-21T16:45:46.129Z,2.77
2019-05-21T16:48:14.584Z,2.20
2019-05-21T16:50:44.709Z,1.70
2019-05-21T16:53:13.338Z,3.85
2019-05-21T16:55:41.860Z,2.50
2019-05-21T16:58:10.810Z,2.60
2019-05-21T17:00:39.315Z,3.25
2019-05-21T17:03:07.788Z,2.08
2019-05-21T17:05:36.281Z,3.40
2019-05-21T17:08:04.874Z,2.92
2019-05-21T17:10:33.332Z,3.37
2019-05-21T17:13:01.850Z,4.00
2019-05-21T17:15:30.304Z,4.37
2019-05-21T17:17:58.862Z,3.55
2019-05-21T17:20:27.598Z,4.85
2019-05-21T17:22:56.103Z,4.17
2019-05-21T17:25:28.849Z,5.55
2019-05-21T17:27:57.374Z,5.35
2019-05-21T17:30:25.819Z,4.33
2019-05-21T17:32:56.179Z,4.17
2019-05-21T17:35:24.759Z,2.80
2019-05-21T17:37:53.326Z,2.00
2019-05-21T17:40:21.769Z,3.22
2019-05-21T17:42:52.330Z,2.05
2019-05-21T17:45:20.527Z,2.75
2019-05-21T17:47:49.019Z,3.50
2019-05-21T17:50:17.496Z,2.30
2019-05-21T17:52:46.007Z,2.85
2019-05-21T17:55:14.727Z,2.30
2019-05-21T17:57:43.898Z,2.33
2019-05-21T18:00:13.904Z,3.08
2019-05-21T18:02:42.369Z,3.27
2019-05-21T18:05:14.298Z,2.62
2019-05-21T18:07:43.355Z,2.42
2019-05-21T18:10:13.602Z,4.28
2019-05-21T18:12:42.569Z,3.83
2019-05-21T18:15:12.036Z,2.60
2019-05-21T18:17:41.423Z,2.85
2019-05-21T18:20:12.245Z,2.52
2019-05-21T18:22:42.892Z,2.72
2019-05-21T18:25:11.842Z,2.85
2019-05-21T18:27:41.112Z,3.87
2019-05-21T18:30:11.721Z,4.35
2019-05-21T18:32:40.215Z,3.37
2019-05-21T18:35:09.702Z,2.62
2019-05-21T18:37:39.199Z,4.05
2019-05-21T18:40:09.321Z,3.50
2019-05-21T18:42:37.810Z,3.80
2019-05-21T18:45:06.708Z,4.72
2019-05-21T18:47:35.382Z,3.17
2019-05-21T18:50:08.348Z,3.67
2019-05-21T18:52:36.822Z,5.40
2019-05-21T18:55:06.116Z,4.25
2019-05-21T18:57:34.687Z,3.08
2019-05-21T19:00:04.933Z,4.90
2019-05-21T19:02:33.543Z,5.10
2019-05-21T19:05:02.069Z,5.92
2019-05-21T19:07:30.619Z,5.62
2019-05-21T19:10:01.044Z,6.85
2019-05-21T19:12:37.518Z,5.08
2019-05-21T19:14:59.594Z,4.35
2019-05-21T19:17:35.507Z,5.28
2019-05-21T19:19:58.334Z,5.78
2019-05-21T19:22:27.694Z,7.47
2019-05-21T19:24:56.386Z,4.67
2019-05-21T19:27:25.382Z,7.00
2019-05-21T19:29:53.916Z,5.03
2019-05-21T19:32:22.377Z,4.47
2019-05-21T19:34:51.030Z,4.35
2019-05-21T19:37:19.660Z,5.83
2019-05-21T19:39:48.151Z,4.45
2019-05-21T19:42:16.685Z,4.20
2019-05-21T19:44:45.218Z,3.17
2019-05-21T19:47:13.848Z,4.05
2019-05-21T19:49:42.376Z,3.98
2019-05-21T19:52:10.924Z,4.08
2019-05-21T19:54:39.410Z,4.10
2019-05-21T19:57:07.908Z,5.00
2019-05-21T19:59:36.510Z,5.37
2019-05-21T20:02:06.463Z,3.90
2019-05-21T20:04:35.326Z,6.05
2019-05-21T20:07:05.429Z,5.42
2019-05-21T20:09:33.888Z,6.30
2019-05-21T20:12:02.713Z,4.75
2019-05-21T20:14:31.244Z,4.45
2019-05-21T20:16:59.970Z,8.65
2019-05-21T20:19:28.457Z,6.67
2019-05-21T20:21:56.978Z,7.78
2019-05-21T20:24:25.493Z,7.55
2019-05-21T20:26:54.320Z,5.47
2019-05-21T20:29:23.232Z,5.83
2019-05-21T20:31:52.054Z,5.28
2019-05-21T20:34:20.896Z,6.53
2019-05-21T20:36:50.270Z,6.28
2019-05-21T20:39:19.086Z,7.12
2019-05-21T20:41:48.666Z,5.97
2019-05-21T20:44:18.055Z,5.28
2019-05-21T20:46:46.745Z,5.72
2019-05-21T20:49:15.195Z,6.10
2019-05-21T20:51:44.318Z,7.50
2019-05-21T20:54:14.654Z,6.35
2019-05-21T20:56:43.788Z,5.40
2019-05-21T20:59:12.327Z,4.58
2019-05-21T21:01:41.812Z,7.25
2019-05-21T21:04:10.609Z,8.45
2019-05-21T21:06:40.513Z,6.85
2019-05-21T21:09:10.387Z,6.75
2019-05-21T21:11:40.178Z,6.28
2019-05-21T21:14:17.932Z,6.72
2019-05-21T21:16:42.603Z,5.95
2019-05-21T21:19:11.272Z,6.50
2019-05-21T21:21:39.861Z,4.97
2019-05-21T21:24:08.655Z,6.55
2019-05-21T21:26:38.155Z,5.55
2019-05-21T21:29:07.313Z,5.65
2019-05-21T21:31:36.015Z,5.65
2019-05-21T21:34:06.087Z,4.40
2019-05-21T21:36:35.387Z,5.60
2019-05-21T21:39:06.555Z,5.40
2019-05-21T21:41:36.838Z,4.53
2019-05-21T21:44:06.220Z,4.28
2019-05-21T21:46:34.695Z,3.98
2019-05-21T21:49:03.210Z,4.70
2019-05-21T21:51:32.160Z,4.25
2019-05-21T21:54:01.790Z,3.87
2019-05-21T21:56:30.276Z,3.42
2019-05-21T21:58:58.731Z,4.58
2019-05-21T22:01:40.908Z,4.83
2019-05-21T22:04:12.253Z,5.03
2019-05-21T22:06:43.779Z,4.40
2019-05-21T22:09:19.719Z,4.15
2019-05-21T22:11:49.315Z,3.62
2019-05-21T22:14:18.312Z,3.95
2019-05-21T22:16:46.772Z,5.25
2019-05-21T22:19:16.041Z,5.15
2019-05-21T22:21:44.672Z,5.70
2019-05-21T22:24:14.436Z,3.50
2019-05-21T22:26:43.338Z,4.25
2019-05-21T22:29:12.622Z,5.87
2019-05-21T22:31:41.646Z,5.72
2019-05-21T22:34:10.380Z,6.70
2019-05-21T22:36:38.822Z,8.10
2019-05-21T22:39:09.593Z,6.33
2019-05-21T22:41:38.116Z,7.08
2019-05-21T22:44:06.567Z,6.28
2019-05-21T22:46:35.101Z,7.40
2019-05-21T22:49:03.628Z,7.08
2019-05-21T22:51:32.080Z,5.67
2019-05-21T22:54:00.578Z,8.58
2019-05-21T22:56:29.141Z,6.35
2019-05-21T22:58:57.592Z,7.03
2019-05-21T23:01:27.820Z,6.47
2019-05-21T23:03:56.655Z,6.78
2019-05-21T23:06:25.176Z,6.15
2019-05-21T23:08:53.644Z,5.45
2019-05-21T23:11:23.204Z,7.85
2019-05-21T23:13:51.992Z,6.35
2019-05-21T23:16:20.445Z,7.20
2019-05-21T23:18:49.184Z,5.65
2019-05-21T23:21:19.503Z,6.37
2019-05-21T23:23:49.689Z,4.78
2019-05-21T23:26:18.906Z,4.15
2019-05-21T23:28:47.860Z,4.05
2019-05-21T23:31:16.322Z,3.80
2019-05-21T23:33:45.285Z,3.25
2019-05-21T23:36:14.394Z,4.90
2019-05-21T23:38:43.355Z,6.28
2019-05-21T23:41:12.157Z,4.08
2019-05-21T23:43:41.404Z,4.53
2019-05-21T23:46:10.696Z,5.42
2019-05-21T23:48:39.533Z,4.05
2019-05-21T23:51:08.046Z,4.12
2019-05-21T23:53:36.529Z,3.72
2019-05-21T23:56:05.409Z,4.75
2019-05-21T23:58:33.856Z,4.03
